Time;durP1;ratioP1;P1;durP2;ratioP2;P2;SDS_P1;SDS_P2;PMS_P1;PMS_P2;Temp;Humidity;BMP_temperature;BMP_pressure;BME280_temperature;BME280_humidity;BME280_pressure;Samples;Min_cycle;Max_cycle;Signal;HPM_P1;HPM_P2
2021/09/28 00:00:11;;;;;;;;;7.67;6.33;;;;;19.40;57.78;98758.38;4860491;28;105149;-93
2021/09/28 00:02:39;;;;;;;;;6.67;5.67;;;;;19.40;57.77;98750.97;4827982;28;104078;-93
2021/09/28 00:05:07;;;;;;;;;6.00;5.33;;;;;19.41;57.53;98754.53;4826948;28;104576;-93
2021/09/28 00:07:34;;;;;;;;;7.33;5.33;;;;;19.39;57.50;98760.28;4830538;28;104169;-93
2021/09/28 00:10:02;;;;;;;;;5.00;4.33;;;;;19.40;57.22;98759.19;4854703;28;102427;-93
2021/09/28 00:12:30;;;;;;;;;5.67;4.33;;;;;19.39;57.28;98763.03;4849270;28;104191;-92
2021/09/28 00:14:57;;;;;;;;;9.00;5.00;;;;;19.35;57.12;98759.13;4861449;28;102636;-93
2021/09/28 00:17:24;;;;;;;;;7.00;6.00;;;;;19.33;56.75;98758.53;4860743;28;103275;-92
2021/09/28 00:19:52;;;;;;;;;6.00;5.33;;;;;19.31;56.92;98760.72;4856909;28;104167;-93
2021/09/28 00:22:19;;;;;;;;;4.00;4.00;;;;;19.29;56.67;98762.88;4858271;28;104173;-93
2021/09/28 00:24:46;;;;;;;;;4.67;4.33;;;;;19.29;56.91;98762.03;4862388;28;102504;-92
2021/09/28 00:27:13;;;;;;;;;4.00;3.33;;;;;19.30;57.03;98763.72;4862459;28;102206;-92
2021/09/28 00:29:40;;;;;;;;;5.00;5.00;;;;;19.26;57.00;98762.56;4861067;28;102512;-93
2021/09/28 00:32:07;;;;;;;;;6.33;6.00;;;;;19.25;56.92;98760.91;4855779;28;104053;-93
2021/09/28 00:34:36;;;;;;;;;4.00;4.00;;;;;19.26;56.84;98763.41;4860014;28;102430;-91
2021/09/28 00:37:03;;;;;;;;;4.33;4.33;;;;;19.24;56.60;98757.31;4863527;28;102696;-90
2021/09/28 00:39:30;;;;;;;;;6.00;6.00;;;;;19.23;56.57;98758.41;4853859;28;104023;-91
2021/09/28 00:42:00;;;;;;;;;4.33;4.33;;;;;19.21;56.48;98755.09;4856866;28;104058;-90
2021/09/28 00:44:32;;;;;;;;;4.67;3.67;;;;;19.23;56.72;98763.88;4859079;28;102476;-90
2021/09/28 00:46:59;;;;;;;;;4.67;4.33;;;;;19.22;56.76;98751.28;4850424;28;104434;-90
2021/09/28 00:49:26;;;;;;;;;4.00;4.00;;;;;19.25;56.18;98750.75;4855289;28;102778;-91
2021/09/28 00:51:53;;;;;;;;;4.00;4.00;;;;;19.24;56.29;98751.84;4858909;28;103571;-91
2021/09/28 00:54:20;;;;;;;;;3.33;3.33;;;;;19.22;56.39;98756.75;4849918;28;102641;-90
2021/09/28 00:56:47;;;;;;;;;3.67;3.00;;;;;19.21;56.41;98759.75;4863396;28;102391;-90
2021/09/28 00:59:14;;;;;;;;;1.00;1.00;;;;;19.20;55.93;98758.91;4852251;28;102652;-91
2021/09/28 01:01:41;;;;;;;;;5.00;5.00;;;;;19.16;56.14;98758.59;4821278;28;109120;-90
2021/09/28 01:04:08;;;;;;;;;4.67;4.00;;;;;19.16;56.29;98755.00;4818804;28;102446;-90
2021/09/28 01:06:35;;;;;;;;;2.33;2.33;;;;;19.14;56.21;98760.75;4812960;28;103519;-91
2021/09/28 01:09:02;;;;;;;;;6.00;4.33;;;;;19.15;55.94;98761.56;4805902;28;104310;-90
2021/09/28 01:11:29;;;;;;;;;4.33;4.00;;;;;19.12;56.24;98753.88;4852262;28;104103;-90
2021/09/28 01:13:56;;;;;;;;;4.00;4.00;;;;;19.12;55.84;98757.44;4831666;28;103311;-90
2021/09/28 01:16:25;;;;;;;;;5.67;3.00;;;;;19.11;56.04;98754.94;4849012;28;104173;-90
2021/09/28 01:18:52;;;;;;;;;4.33;4.00;;;;;19.11;55.87;98757.69;4852052;28;102230;-89
2021/09/28 01:21:20;;;;;;;;;4.00;3.67;;;;;19.11;55.99;98749.47;4855858;28;104328;-90
2021/09/28 01:23:47;;;;;;;;;3.00;3.00;;;;;19.10;55.52;98754.09;4838786;28;102037;-91
2021/09/28 01:26:17;;;;;;;;;4.00;4.00;;;;;19.09;55.62;98751.63;4846548;28;103943;-91
2021/09/28 01:28:44;;;;;;;;;5.33;4.67;;;;;19.09;55.54;98757.13;4850745;28;102246;-91
2021/09/28 01:31:12;;;;;;;;;4.33;4.33;;;;;19.09;55.54;98762.59;4855614;28;104279;-90
2021/09/28 01:33:39;;;;;;;;;6.33;5.00;;;;;19.05;55.48;98764.16;4853038;28;102528;-90
2021/09/28 01:36:07;;;;;;;;;5.00;5.00;;;;;19.04;55.27;98760.63;4848172;28;104114;-90
2021/09/28 01:38:34;;;;;;;;;4.33;4.00;;;;;19.02;55.31;98762.75;4839748;28;103553;-90
2021/09/28 01:41:01;;;;;;;;;5.00;5.00;;;;;19.02;55.15;98760.03;4848761;28;104080;-90
2021/09/28 01:43:28;;;;;;;;;2.67;2.67;;;;;19.04;55.41;98759.78;4852607;28;102420;-90
2021/09/28 01:45:59;;;;;;;;;4.33;4.00;;;;;19.04;54.92;98763.34;4851059;28;102006;-90
2021/09/28 01:48:48;;;;;;;;;2.67;2.67;;;;;19.02;55.38;98765.50;4851698;28;102643;-90
2021/09/28 01:51:15;;;;;;;;;6.00;4.33;;;;;19.01;54.64;98766.59;4845610;28;104066;-90
2021/09/28 01:53:42;;;;;;;;;3.00;3.00;;;;;18.97;55.27;98770.91;4843848;28;105174;-91
2021/09/28 01:56:22;;;;;;;;;3.67;3.00;;;;;18.97;54.85;98773.66;4859402;28;102599;-90
2021/09/28 01:58:49;;;;;;;;;4.33;4.00;;;;;18.96;55.24;98768.41;4847145;28;103148;-90
2021/09/28 02:01:16;;;;;;;;;4.00;4.00;;;;;18.97;55.26;98778.28;4860192;28;104092;-90
2021/09/28 02:03:43;;;;;;;;;6.00;5.00;;;;;18.98;55.08;98771.75;4861511;28;102782;-90
2021/09/28 02:06:11;;;;;;;;;4.00;4.00;;;;;18.97;54.98;98767.34;4847982;28;102516;-90
2021/09/28 02:08:38;;;;;;;;;4.00;4.00;;;;;18.96;54.91;98779.38;4867207;28;102545;-91
2021/09/28 02:11:05;;;;;;;;;4.00;4.00;;;;;18.93;54.56;98785.38;4856229;28;103775;-90
2021/09/28 02:13:32;;;;;;;;;5.00;5.00;;;;;18.91;54.77;98779.31;4847178;28;107186;-90
2021/09/28 02:15:59;;;;;;;;;4.67;4.00;;;;;18.92;54.42;98787.28;4846636;28;102691;-90
2021/09/28 02:18:26;;;;;;;;;3.67;3.67;;;;;18.90;54.14;98789.44;4823286;28;102846;-90
2021/09/28 02:20:53;;;;;;;;;4.00;3.67;;;;;18.90;54.49;98797.66;4843129;28;107647;-90
2021/09/28 02:23:20;;;;;;;;;3.33;3.00;;;;;18.90;54.41;98791.34;4846873;28;102060;-90
2021/09/28 02:25:47;;;;;;;;;6.00;4.33;;;;;18.90;54.31;98781.22;4833396;28;104282;-90
2021/09/28 02:28:14;;;;;;;;;4.33;4.00;;;;;18.89;54.33;98793.25;4851055;28;102822;-90
2021/09/28 02:30:41;;;;;;;;;4.00;3.33;;;;;18.85;54.30;98786.63;4849658;28;104393;-90
2021/09/28 02:33:08;;;;;;;;;3.00;3.00;;;;;18.83;54.33;98786.03;4841738;28;102673;-90
2021/09/28 02:35:35;;;;;;;;;2.67;2.67;;;;;18.82;54.10;98789.03;4838290;28;102615;-90
2021/09/28 02:38:03;;;;;;;;;4.33;4.33;;;;;18.79;54.42;98789.50;4849692;28;102731;-90
2021/09/28 02:40:30;;;;;;;;;2.00;2.00;;;;;18.79;54.54;98795.00;4836869;28;104019;-90
2021/09/28 02:42:57;;;;;;;;;3.33;3.33;;;;;18.76;54.35;98787.28;4846071;28;102752;-90
2021/09/28 02:45:24;;;;;;;;;5.33;4.33;;;;;18.78;54.47;98793.34;4845448;28;103105;-89
2021/09/28 02:47:51;;;;;;;;;4.00;4.00;;;;;18.79;54.21;98789.50;4841271;28;107238;-90
2021/09/28 02:50:18;;;;;;;;;4.00;4.00;;;;;18.77;54.17;98792.53;4838306;28;109620;-90
2021/09/28 02:52:44;;;;;;;;;4.00;3.67;;;;;18.76;53.91;98795.50;4836316;28;102424;-90
2021/09/28 02:55:11;;;;;;;;;3.00;3.00;;;;;18.73;53.75;98800.38;4843022;28;103766;-90
2021/09/28 02:57:38;;;;;;;;;3.00;3.00;;;;;18.75;53.94;98793.84;4839269;28;102562;-90
2021/09/28 03:00:07;;;;;;;;;6.00;5.00;;;;;18.75;53.44;98791.94;4838651;28;106276;-90
2021/09/28 03:02:34;;;;;;;;;3.00;3.00;;;;;18.75;53.57;98794.66;4849104;28;103489;-90
2021/09/28 03:05:01;;;;;;;;;4.00;3.67;;;;;18.76;53.60;98784.53;4855904;28;102446;-90
2021/09/28 03:07:28;;;;;;;;;4.00;4.00;;;;;18.75;53.57;98791.94;4827602;28;102795;-90
2021/09/28 03:09:55;;;;;;;;;4.67;4.67;;;;;18.77;53.28;98786.22;4849567;28;104095;-90
2021/09/28 03:12:22;;;;;;;;;4.00;4.00;;;;;18.72;53.59;98792.44;4851004;28;103952;-89
2021/09/28 03:14:49;;;;;;;;;4.67;4.00;;;;;18.70;53.59;98784.47;4846642;28;102665;-90
2021/09/28 03:17:16;;;;;;;;;4.00;4.00;;;;;18.70;53.68;98789.94;4848552;28;102721;-91
2021/09/28 03:19:43;;;;;;;;;4.67;3.00;;;;;18.67;53.61;98792.34;4842674;28;105928;-90
2021/09/28 03:22:10;;;;;;;;;4.00;4.00;;;;;18.65;53.61;98784.38;4835894;28;102482;-90
2021/09/28 03:24:37;;;;;;;;;4.00;3.00;;;;;18.63;53.81;98792.03;4839458;28;111540;-90
2021/09/28 03:27:05;;;;;;;;;3.00;3.00;;;;;18.62;53.81;98787.63;4833103;28;102548;-91
2021/09/28 03:29:32;;;;;;;;;4.67;4.00;;;;;18.62;53.28;98787.63;4832197;28;104144;-90
2021/09/28 03:31:59;;;;;;;;;4.67;3.67;;;;;18.63;53.51;98793.94;4836669;28;102290;-90
2021/09/28 03:34:26;;;;;;;;;3.00;3.00;;;;;18.60;53.33;98795.25;4835792;28;102499;-90
2021/09/28 03:36:53;;;;;;;;;4.33;4.00;;;;;18.62;53.72;98792.25;4839435;28;104461;-89
2021/09/28 03:39:20;;;;;;;;;4.67;3.00;;;;;18.61;53.02;98796.91;4841716;28;104056;-90
2021/09/28 03:41:48;;;;;;;;;4.33;4.00;;;;;18.60;52.86;98797.97;4839024;28;103235;-90
2021/09/28 03:44:15;;;;;;;;;3.67;3.67;;;;;18.60;52.53;98797.97;4832087;28;102149;-90
2021/09/28 03:46:42;;;;;;;;;4.00;4.00;;;;;18.61;52.81;98794.16;4844476;28;103613;-90
2021/09/28 03:49:09;;;;;;;;;5.00;4.00;;;;;18.58;52.92;98802.88;4826437;28;108153;-90
2021/09/28 03:51:36;;;;;;;;;5.33;4.67;;;;;18.59;52.61;98804.56;4839216;28;102525;-90
2021/09/28 03:54:03;;;;;;;;;4.00;4.00;;;;;18.57;53.06;98803.97;4825351;28;102297;-90
2021/09/28 03:56:30;;;;;;;;;6.33;5.00;;;;;18.58;52.60;98794.66;4835369;28;103459;-90
2021/09/28 03:58:57;;;;;;;;;4.33;3.00;;;;;18.56;53.10;98807.75;4841351;28;104210;-91
2021/09/28 04:01:24;;;;;;;;;4.00;4.00;;;;;18.55;53.19;98803.34;4821908;28;102864;-89
2021/09/28 04:03:52;;;;;;;;;3.67;3.00;;;;;18.55;52.83;98811.56;4836533;28;103139;-90
2021/09/28 04:06:19;;;;;;;;;4.33;4.33;;;;;18.52;52.51;98806.56;4843165;28;102820;-90
2021/09/28 04:08:46;;;;;;;;;4.33;3.00;;;;;18.51;52.70;98821.34;4833268;28;104109;-90
2021/09/28 04:11:13;;;;;;;;;4.00;4.00;;;;;18.49;52.84;98819.94;4827007;28;102303;-90
2021/09/28 04:13:42;;;;;;;;;4.00;3.33;;;;;18.51;53.01;98815.84;4845518;28;109410;-90
2021/09/28 04:16:09;;;;;;;;;4.33;4.33;;;;;18.51;52.45;98810.38;4833813;28;102608;-90
2021/09/28 04:18:36;;;;;;;;;6.33;4.00;;;;;18.49;52.18;98806.25;4841006;28;104149;-91
2021/09/28 04:21:03;;;;;;;;;5.33;5.00;;;;;18.49;52.44;98811.72;4841937;28;102303;-91
2021/09/28 04:23:30;;;;;;;;;3.00;3.00;;;;;18.48;52.52;98797.19;4821865;28;102759;-91
2021/09/28 04:25:57;;;;;;;;;4.00;4.00;;;;;18.49;52.21;98815.28;4809431;28;102243;-90
2021/09/28 04:28:24;;;;;;;;;6.33;3.33;;;;;18.48;52.51;98813.63;4835494;28;104061;-90
2021/09/28 04:30:51;;;;;;;;;3.00;3.00;;;;;18.47;51.73;98813.84;4851000;28;102482;-91
2021/09/28 04:33:18;;;;;;;;;3.00;3.00;;;;;18.44;51.89;98815.19;4840210;28;102092;-90
2021/09/28 04:35:45;;;;;;;;;3.67;3.00;;;;;18.42;52.51;98814.59;4815185;28;102218;-91
2021/09/28 04:38:12;;;;;;;;;5.00;5.00;;;;;18.45;52.46;98822.34;4846796;28;104023;-89
2021/09/28 04:40:39;;;;;;;;;6.00;4.00;;;;;18.41;51.64;98821.19;4844247;28;102727;-91
2021/09/28 04:43:06;;;;;;;;;4.67;4.00;;;;;18.35;52.24;98822.16;4843100;28;102378;-91
2021/09/28 04:45:33;;;;;;;;;6.00;5.00;;;;;18.39;51.92;98822.47;4841180;28;102620;-91
2021/09/28 04:48:00;;;;;;;;;4.00;4.00;;;;;18.36;52.37;98818.34;4846843;28;104609;-90
2021/09/28 04:50:27;;;;;;;;;4.33;3.67;;;;;18.36;51.79;98829.28;4844095;28;102407;-91
2021/09/28 04:52:54;;;;;;;;;4.00;3.33;;;;;18.32;52.08;98828.13;4848858;28;102460;-91
2021/09/28 04:55:21;;;;;;;;;4.00;3.00;;;;;18.33;51.53;98837.97;4853157;28;102586;-91
2021/09/28 04:57:48;;;;;;;;;5.67;5.00;;;;;18.32;52.26;98833.59;4841835;28;104092;-91
2021/09/28 05:00:15;;;;;;;;;6.00;4.00;;;;;18.28;51.62;98832.44;4849993;28;104254;-91
2021/09/28 05:02:43;;;;;;;;;5.33;5.00;;;;;18.30;52.27;98835.75;4841349;28;102418;-90
2021/09/28 05:05:11;;;;;;;;;4.00;4.00;;;;;18.28;51.45;98841.44;4842163;28;102207;-91
2021/09/28 05:07:38;;;;;;;;;6.00;5.33;;;;;18.28;51.21;98841.44;4839014;28;104045;-90
2021/09/28 05:10:05;;;;;;;;;6.67;5.67;;;;;18.26;51.12;98845.53;4843768;28;104770;-90
2021/09/28 05:12:32;;;;;;;;;5.00;5.00;;;;;18.28;51.12;98848.84;4843602;28;102318;-90
2021/09/28 05:14:59;;;;;;;;;5.00;4.00;;;;;18.26;51.38;98853.72;4854835;28;102393;-91
2021/09/28 05:17:26;;;;;;;;;6.33;5.33;;;;;18.23;51.80;98846.84;4862113;28;103909;-90
2021/09/28 05:19:53;;;;;;;;;7.67;6.00;;;;;18.25;51.77;98849.31;4862629;28;103915;-90
2021/09/28 05:22:20;;;;;;;;;7.00;5.00;;;;;18.22;51.83;98844.34;4859047;28;102319;-90
2021/09/28 05:24:47;;;;;;;;;5.00;4.67;;;;;18.23;51.61;98854.22;4864362;28;102364;-91
2021/09/28 05:27:15;;;;;;;;;5.00;5.00;;;;;18.20;51.34;98851.97;4858041;28;104094;-90
2021/09/28 05:29:42;;;;;;;;;4.00;4.00;;;;;18.20;50.91;98850.06;4860491;28;102289;-90
2021/09/28 05:32:09;;;;;;;;;5.00;5.00;;;;;18.20;50.97;98844.56;4857679;28;104301;-90
2021/09/28 05:34:36;;;;;;;;;5.00;5.00;;;;;18.16;51.10;98845.31;4854419;28;103297;-90
2021/09/28 05:37:03;;;;;;;;;5.33;5.33;;;;;18.16;51.31;98846.16;4859903;28;104510;-90
2021/09/28 05:39:30;;;;;;;;;4.00;4.00;;;;;18.18;51.21;98844.00;4860589;28;102305;-90
2021/09/28 05:41:57;;;;;;;;;6.00;5.67;;;;;18.16;51.76;98853.53;4860717;28;102617;-90
2021/09/28 05:44:24;;;;;;;;;5.00;5.00;;;;;18.15;51.53;98858.16;4859963;28;102721;-90
2021/09/28 05:46:51;;;;;;;;;5.33;5.00;;;;;18.15;51.61;98865.53;4854676;28;108986;-91
2021/09/28 05:49:18;;;;;;;;;6.00;5.67;;;;;18.13;51.40;98863.06;4853921;28;102702;-90
2021/09/28 05:51:55;;;;;;;;;6.00;5.33;;;;;18.13;51.64;98864.97;4863348;28;102576;-90
2021/09/28 05:54:23;;;;;;;;;4.67;4.67;;;;;18.12;50.79;98857.81;4853446;28;102624;-91
2021/09/28 05:56:51;;;;;;;;;6.00;6.00;;;;;18.14;51.30;98869.38;4843417;28;104083;-90
2021/09/28 05:59:18;;;;;;;;;5.00;4.67;;;;;18.14;50.97;98855.69;4855702;28;103264;-90
2021/09/28 06:01:45;;;;;;;;;8.00;7.00;;;;;18.11;51.13;98861.63;4851235;28;102919;-90
2021/09/28 06:04:12;;;;;;;;;6.00;5.00;;;;;18.08;51.08;98864.88;4864030;28;102266;-90
2021/09/28 06:06:40;;;;;;;;;6.00;6.00;;;;;18.08;51.13;98879.38;4865747;28;103867;-90
2021/09/28 06:09:07;;;;;;;;;5.00;5.00;;;;;18.06;51.21;98878.78;4857498;28;102582;-90
2021/09/28 06:11:35;;;;;;;;;5.00;5.00;;;;;18.10;50.97;98890.91;4863444;28;102485;-90
2021/09/28 06:14:02;;;;;;;;;6.00;5.00;;;;;18.06;50.84;98894.38;4869066;28;103112;-90
2021/09/28 06:16:29;;;;;;;;;5.00;5.00;;;;;18.06;51.08;98897.94;4840963;28;104195;-89
2021/09/28 06:18:57;;;;;;;;;6.00;5.00;;;;;18.06;50.92;98899.84;4864278;28;102206;-89
2021/09/28 06:21:24;;;;;;;;;6.00;6.00;;;;;18.06;50.83;98900.66;4863630;28;102375;-90
2021/09/28 06:23:53;;;;;;;;;7.00;6.33;;;;;18.07;51.05;98904.25;4856484;28;104346;-90
2021/09/28 06:26:21;;;;;;;;;6.67;5.67;;;;;18.08;51.01;98900.44;4863548;28;104050;-90
2021/09/28 06:28:48;;;;;;;;;5.00;4.33;;;;;18.09;51.01;98904.84;4857921;28;102551;-90
2021/09/28 06:31:17;;;;;;;;;7.33;6.33;;;;;18.06;51.25;98908.03;4859329;28;102527;-89
2021/09/28 06:33:44;;;;;;;;;5.33;5.33;;;;;18.05;51.24;98917.34;4868665;28;102218;-90
2021/09/28 06:36:11;;;;;;;;;6.67;5.67;;;;;18.03;50.79;98917.59;4851173;28;103990;-90
2021/09/28 06:38:38;;;;;;;;;4.00;4.00;;;;;18.04;51.16;98921.16;4859667;28;102565;-90
2021/09/28 06:41:05;;;;;;;;;4.00;4.00;;;;;18.01;51.50;98932.59;4869098;28;102626;-90
2021/09/28 06:43:32;;;;;;;;;5.00;5.00;;;;;17.98;51.50;98911.16;4860112;28;102200;-89
2021/09/28 06:45:59;;;;;;;;;7.67;6.00;;;;;18.02;51.47;98923.28;4863788;28;104022;-89
2021/09/28 06:48:27;;;;;;;;;4.00;4.00;;;;;18.03;50.99;98927.69;4866301;28;112937;-89
2021/09/28 06:50:54;;;;;;;;;4.00;4.00;;;;;18.03;50.90;98927.69;4859891;28;102287;-90
2021/09/28 06:53:21;;;;;;;;;5.33;4.33;;;;;18.00;51.20;98928.19;4858382;28;102784;-90
2021/09/28 06:55:48;;;;;;;;;6.00;5.00;;;;;18.04;50.96;98926.63;4861187;28;104042;-90
2021/09/28 06:58:15;;;;;;;;;4.67;4.00;;;;;18.02;51.55;98932.34;4856491;28;102330;-89
2021/09/28 07:00:42;;;;;;;;;5.00;5.00;;;;;18.04;51.29;98937.56;4863471;28;102520;-90
2021/09/28 07:03:09;;;;;;;;;4.67;4.67;;;;;18.02;51.84;98931.50;4861213;28;102184;-90
2021/09/28 07:05:37;;;;;;;;;4.00;4.00;;;;;18.03;51.92;98933.16;4851349;28;104764;-90
2021/09/28 07:08:04;;;;;;;;;7.00;6.00;;;;;18.03;51.32;98939.47;4865423;28;102551;-89
2021/09/28 07:10:31;;;;;;;;;4.00;4.00;;;;;18.03;51.63;98939.47;4861773;28;104408;-90
2021/09/28 07:12:58;;;;;;;;;4.33;4.00;;;;;18.03;51.08;98935.91;4851032;28;102629;-89
2021/09/28 07:15:25;;;;;;;;;5.00;5.00;;;;;18.05;51.39;98942.81;4859877;28;103524;-90
2021/09/28 07:17:54;;;;;;;;;3.67;3.67;;;;;18.03;51.67;98942.22;4859811;28;103479;-90
2021/09/28 07:20:21;;;;;;;;;4.00;4.00;;;;;18.06;51.65;98938.16;4847129;28;102552;-90
2021/09/28 07:22:48;;;;;;;;;7.00;5.00;;;;;18.06;51.45;98943.63;4863954;28;102702;-90
2021/09/28 07:25:15;;;;;;;;;4.00;4.00;;;;;18.04;51.35;98954.00;4851207;28;104098;-90
2021/09/28 07:27:57;;;;;;;;;3.00;3.00;;;;;18.08;51.72;98946.97;4860134;28;102650;-90
2021/09/28 07:30:28;;;;;;;;;3.33;3.33;;;;;18.07;51.45;98951.59;4856836;28;102329;-90
2021/09/28 07:32:56;;;;;;;;;4.00;4.00;;;;;18.06;52.01;98960.88;4857768;28;102506;-90
2021/09/28 07:35:23;;;;;;;;;4.00;4.00;;;;;18.08;51.71;98953.28;4854635;28;108955;-90
2021/09/28 07:37:50;;;;;;;;;4.00;3.00;;;;;18.09;51.35;98948.63;4851417;28;102212;-90
2021/09/28 07:40:18;;;;;;;;;6.00;4.00;;;;;18.07;51.57;98958.97;4857683;28;102529;-90
2021/09/28 07:42:46;;;;;;;;;5.67;4.67;;;;;18.04;52.33;98956.72;4850713;28;102682;-90
2021/09/28 07:45:13;;;;;;;;;6.00;4.00;;;;;18.04;52.06;98959.47;4855696;28;104073;-90
2021/09/28 07:47:40;;;;;;;;;5.00;4.00;;;;;18.02;52.65;98959.69;4859073;28;102550;-90
2021/09/28 07:50:08;;;;;;;;;4.67;4.00;;;;;18.08;51.68;98957.91;4848731;28;103489;-90
2021/09/28 07:52:35;;;;;;;;;5.33;4.00;;;;;18.07;52.34;98965.28;4860360;28;102263;-89
2021/09/28 07:55:02;;;;;;;;;5.00;5.00;;;;;18.03;52.07;98952.31;4851287;28;104075;-90
2021/09/28 07:57:29;;;;;;;;;5.00;4.00;;;;;18.02;52.01;98947.91;4866027;28;102607;-90
2021/09/28 07:59:56;;;;;;;;;5.33;3.33;;;;;18.07;51.84;98956.25;4857974;28;102657;-90
2021/09/28 08:02:23;;;;;;;;;3.00;3.00;;;;;18.05;52.71;98953.75;4857559;28;102638;-90
2021/09/28 08:04:50;;;;;;;;;4.00;4.00;;;;;18.05;53.02;98947.44;4861798;28;104067;-90
2021/09/28 08:07:17;;;;;;;;;5.67;4.00;;;;;18.06;52.55;98949.09;4841204;28;102149;-90
2021/09/28 08:09:44;;;;;;;;;4.00;3.00;;;;;18.06;52.85;98947.19;4854078;28;105423;-89
2021/09/28 08:12:11;;;;;;;;;5.00;4.00;;;;;18.06;53.01;98946.34;4858687;28;102877;-90
2021/09/28 08:14:38;;;;;;;;;5.00;4.67;;;;;18.07;52.82;98948.03;4839247;28;103823;-90
2021/09/28 08:17:05;;;;;;;;;8.00;5.00;;;;;18.10;52.82;98958.50;4839246;28;102617;-90
2021/09/28 08:19:33;;;;;;;;;2.67;2.67;;;;;18.09;52.98;98948.63;4843629;28;102170;-89
2021/09/28 08:22:00;;;;;;;;;4.00;4.00;;;;;18.11;53.61;98952.78;4839795;28;111176;-90
2021/09/28 08:24:30;;;;;;;;;4.00;3.67;;;;;18.11;53.18;98952.78;4835530;28;108805;-90
2021/09/28 08:29:42;;;;;;;;;3.00;3.00;;;;;18.15;53.54;98955.84;4844696;28;103424;-89
2021/09/28 08:32:09;;;;;;;;;3.00;3.00;;;;;18.16;52.97;98957.53;4841278;28;102256;-90
2021/09/28 08:34:36;;;;;;;;;4.00;4.00;;;;;18.16;53.50;98949.31;4846974;28;104302;-89
2021/09/28 08:37:04;;;;;;;;;3.67;3.67;;;;;18.15;53.34;98958.59;4838640;28;102651;-89
2021/09/28 08:39:31;;;;;;;;;4.00;4.00;;;;;18.16;53.39;98971.22;4842699;28;102375;-89
2021/09/28 08:41:58;;;;;;;;;4.67;4.00;;;;;18.17;53.14;98964.69;4840233;28;102517;-90
2021/09/28 08:44:26;;;;;;;;;3.00;3.00;;;;;18.19;53.49;98970.75;4835691;28;104205;-90
2021/09/28 08:46:53;;;;;;;;;5.00;5.00;;;;;18.19;53.58;98959.81;4841010;28;103711;-90
2021/09/28 08:49:20;;;;;;;;;3.33;3.33;;;;;18.20;53.37;98966.91;4839612;28;105361;-90
2021/09/28 08:51:47;;;;;;;;;5.00;4.00;;;;;18.20;53.88;98953.22;4837683;28;102572;-90
2021/09/28 08:54:15;;;;;;;;;3.00;3.00;;;;;18.19;53.65;98966.09;4833319;28;104030;-90
2021/09/28 08:56:42;;;;;;;;;3.67;3.33;;;;;18.21;53.99;98966.69;4837928;28;104573;-90
2021/09/28 08:59:12;;;;;;;;;5.00;4.33;;;;;18.23;54.21;98966.47;4838578;28;102676;-89
2021/09/28 09:01:53;;;;;;;;;4.00;4.00;;;;;18.24;54.43;98970.84;4839388;28;102097;-90
2021/09/28 09:04:21;;;;;;;;;3.00;3.00;;;;;18.26;53.86;98965.97;4841133;28;104687;-90
2021/09/28 09:06:48;;;;;;;;;4.00;3.33;;;;;18.29;54.09;98962.72;4837196;28;102759;-90
2021/09/28 09:09:22;;;;;;;;;4.00;4.00;;;;;18.31;54.19;98971.56;4830841;28;102652;-90
2021/09/28 09:11:50;;;;;;;;;4.00;4.00;;;;;18.34;53.61;98971.06;4845960;28;102546;-90
2021/09/28 09:14:21;;;;;;;;;4.00;3.33;;;;;18.34;54.42;98962.84;4835036;28;106117;-90
2021/09/28 09:16:49;;;;;;;;;3.00;3.00;;;;;18.35;54.60;98959.03;4815203;28;102527;-90
2021/09/28 09:19:28;;;;;;;;;3.00;3.00;;;;;18.37;54.03;98962.34;4841943;28;102525;-90
2021/09/28 09:21:59;;;;;;;;;4.00;4.00;;;;;18.39;53.85;98964.84;4836549;28;102170;-90
2021/09/28 09:24:49;;;;;;;;;3.67;3.67;;;;;18.39;54.28;98960.22;4834275;28;103856;-90
2021/09/28 09:27:34;;;;;;;;;4.00;3.33;;;;;18.42;54.63;98959.72;4845035;28;103278;-90
2021/09/28 09:30:06;;;;;;;;;5.00;3.00;;;;;18.44;54.41;98965.78;4841145;28;102594;-90
2021/09/28 09:32:55;;;;;;;;;4.00;3.00;;;;;18.46;54.18;98958.16;4835473;28;102510;-89
2021/09/28 09:35:29;;;;;;;;;3.00;3.00;;;;;18.47;54.50;98968.03;4832563;28;104263;-90
2021/09/28 09:38:13;;;;;;;;;4.33;3.00;;;;;18.51;54.60;98971.13;4839450;28;102586;-90
2021/09/28 09:40:47;;;;;;;;;4.00;4.00;;;;;18.51;54.61;98958.25;4824656;28;102299;-90
2021/09/28 09:43:16;;;;;;;;;2.67;2.67;;;;;18.53;53.91;98961.63;4834268;28;102726;-90
2021/09/28 09:45:43;;;;;;;;;4.67;3.00;;;;;18.56;54.48;98955.66;4833377;28;104107;-89
2021/09/28 09:48:23;;;;;;;;;3.00;2.33;;;;;18.58;54.26;98947.22;4830995;28;102557;-90
2021/09/28 09:51:11;;;;;;;;;4.00;4.00;;;;;18.59;54.53;98951.63;4836038;28;102475;-90
2021/09/28 09:53:59;;;;;;;;;3.00;3.00;;;;;18.61;54.41;98946.72;4815661;28;102972;-90
2021/09/28 09:56:44;;;;;;;;;4.00;4.00;;;;;18.64;54.41;98958.00;4840136;28;104158;-90
2021/09/28 09:59:11;;;;;;;;;5.67;5.00;;;;;18.64;54.42;98957.19;4833069;28;102558;-90
2021/09/28 10:01:38;;;;;;;;;4.00;3.33;;;;;18.65;54.43;98954.19;4834155;28;102411;-90
2021/09/28 10:04:09;;;;;;;;;4.00;3.00;;;;;18.67;54.13;98957.53;4845455;28;102213;-91
2021/09/28 10:06:36;;;;;;;;;3.33;3.33;;;;;18.67;54.53;98956.69;4836463;28;105639;-90
2021/09/28 10:09:08;;;;;;;;;3.00;3.00;;;;;18.68;54.38;98955.63;4836900;28;102317;-90
2021/09/28 10:11:35;;;;;;;;;3.00;2.67;;;;;18.69;54.90;98960.84;4829956;28;102298;-90
2021/09/28 10:14:03;;;;;;;;;3.67;3.67;;;;;18.69;54.97;98960.00;4854504;28;102359;-90
2021/09/28 10:16:40;;;;;;;;;3.00;3.00;;;;;18.71;54.77;98963.34;4861212;28;109135;-90
2021/09/28 10:19:26;;;;;;;;;3.00;3.00;;;;;18.73;54.47;98966.69;4845500;28;103443;-90
2021/09/28 10:21:57;;;;;;;;;4.67;4.00;;;;;18.75;54.97;98967.25;4855259;28;102687;-90
2021/09/28 10:24:28;;;;;;;;;4.33;4.00;;;;;18.76;54.52;98970.84;4851519;28;105348;-90
2021/09/28 10:27:00;;;;;;;;;5.00;4.00;;;;;18.77;54.87;98975.25;4864842;28;104131;-90
2021/09/28 10:29:37;;;;;;;;;3.67;3.67;;;;;18.77;55.07;98965.13;4852758;28;102597;-90
2021/09/28 10:32:23;;;;;;;;;5.00;4.00;;;;;18.80;54.77;98972.00;4853244;28;102527;-89
2021/09/28 10:35:11;;;;;;;;;5.00;3.00;;;;;18.79;54.88;98979.38;4859594;28;102820;-91
2021/09/28 10:37:42;;;;;;;;;3.00;3.00;;;;;18.80;54.79;98977.47;4859268;28;109770;-90
2021/09/28 10:40:15;;;;;;;;;4.33;4.00;;;;;18.81;54.87;98981.91;4853622;28;102419;-90
2021/09/28 10:42:52;;;;;;;;;3.00;3.00;;;;;18.82;54.93;98980.81;4864670;28;102687;-90
2021/09/28 10:45:29;;;;;;;;;3.00;3.00;;;;;18.83;55.05;98980.56;4861999;28;102289;-90
2021/09/28 10:48:16;;;;;;;;;3.33;3.33;;;;;18.84;55.25;98975.91;4860751;28;103971;-90
2021/09/28 10:50:45;;;;;;;;;4.00;4.00;;;;;18.84;54.96;98979.50;4857463;28;102313;-91
2021/09/28 10:53:21;;;;;;;;;3.67;3.67;;;;;18.86;54.90;98977.34;4867800;28;102450;-90
2021/09/28 10:56:01;;;;;;;;;4.00;4.00;;;;;18.87;54.96;98979.00;4853753;28;103875;-90
2021/09/28 10:58:28;;;;;;;;;2.33;2.33;;;;;18.90;55.03;98975.78;4858565;28;103719;-91
2021/09/28 11:00:55;;;;;;;;;4.00;4.00;;;;;18.92;55.00;98979.09;4863403;28;103085;-90
2021/09/28 11:03:43;;;;;;;;;3.00;3.00;;;;;18.94;54.51;98962.41;4858455;28;102780;-90
2021/09/28 11:06:11;;;;;;;;;3.67;3.00;;;;;18.95;54.97;98964.09;4855777;28;103424;-90
2021/09/28 11:08:38;;;;;;;;;4.00;4.00;;;;;18.94;54.92;98957.75;4863678;28;104278;-90
2021/09/28 11:11:06;;;;;;;;;4.00;4.00;;;;;18.97;54.93;98961.91;4866092;28;105049;-90
2021/09/28 11:13:35;;;;;;;;;3.00;3.00;;;;;18.98;54.89;98967.16;4849642;28;102747;-90
2021/09/28 11:16:09;;;;;;;;;4.67;3.00;;;;;18.99;55.02;98960.59;4841193;28;102246;-90
2021/09/28 11:18:40;;;;;;;;;4.00;3.00;;;;;19.02;55.08;98964.75;4830250;28;108732;-89
2021/09/28 11:21:11;;;;;;;;;3.00;3.00;;;;;19.04;54.94;98959.88;4833419;28;102545;-90
2021/09/28 11:23:38;;;;;;;;;3.00;3.00;;;;;19.04;55.02;98959.88;4841883;28;102086;-91
2021/09/28 11:26:05;;;;;;;;;4.00;3.00;;;;;19.07;55.23;98965.69;4839424;28;103993;-87
2021/09/28 11:28:33;;;;;;;;;5.00;4.67;;;;;19.07;54.78;98954.72;4837791;28;104130;-90
2021/09/28 11:31:05;;;;;;;;;5.00;3.33;;;;;19.09;55.41;98949.78;4837799;28;102211;-91
2021/09/28 11:33:39;;;;;;;;;6.00;4.00;;;;;19.11;55.13;98961.34;4838892;28;103586;-90